Ana Sayfa
METAR-TAF:

METAR-TAF

Havaalanları :

Elista, Rusya

Elista Havalimanı

Enlem: 46-22N, Boylam: 044-20E, yükseklik: 150 m

Güncel hava durumu gözlemi

Rapor saat 14:00 UTC de 39 dakika önce yapıldı.
Rüzgar doğudan 14 kt
Sıcaklık -2°C
Nem 100%
Basınç 1016 hPa
Görüş mesafesi: 2700 m
300 ft yükseklikte çok bulutlu
Pus

METAR: URWI 231400Z 09007MPS 2700 BR OVC003 M02/M02 Q1016 TEMPO 0500 FZDZ FZFG OVC002 RMK QBB100

Saat: 17:39 (14:39 UTC)

Tahmin

Rapor saat 11:00 UTC de 3 saat ve 39 dakika önce yapıldı.
Ayın 23'si saat 12 UTC'den ayın 23'si saat 21 UTC'ye kadar geçerli Tahmin
Rüzgar doğudan 16 kt ve 25 kt'a kadar ani rüzgarlar
Görüş mesafesi: 3100 m
400 ft yükseklikte parçalı çok bulutlu
Pus
Geçici
ayın 23'si saat 12 UTC'den ayın 23'si saat 21 UTC'ye kadar
Görüş mesafesi: 0800 m
200 ft yükseklikte çok bulutlu
Donan çisenti, Donan sis

TAF: URWI 231100Z 2312/2321 09008G13MPS 3100 BR BKN004 TEMPO 2312/2321 0800 FZDZ FZFG OVC002

4.000'den fazla havaalanı için hava durumu gözlemleri ve tahminleri (METAR ve TAF raporları).

Kullanılabilir istasyonlar harita üzerinde sarı ve kırmızı noktalarla gösterilir.

İstasyonun adını görmek için fareyi noktanın üzerinde gezdirin.

Sonrasında hava gözlem ve tahminlerini görmek için tıklayın.

Haritayı değiştirmek için: yaklaştırmak için siyah artı işaretli yeşil düğmeye ve uzaklaştırmak için de eksi işaretli düğmeye hızla tıklayın; bitişik haritalar için yeşil okları kullanın.


METAR-TAF: